sensor_id;sensor_type;location;lat;lon;timestamp;pressure;altitude;pressure_sealevel;temperature;humidity
20424;BME280;10371;49.042;8.002;2023-05-07T00:00:23;99719.16;;;14.52;91.21
20424;BME280;10371;49.042;8.002;2023-05-07T00:01:24;99713.94;;;14.52;91.25
20424;BME280;10371;49.042;8.002;2023-05-07T00:02:24;99709.34;;;14.54;91.30
20424;BME280;10371;49.042;8.002;2023-05-07T00:03:25;99716.06;;;14.57;91.14
20424;BME280;10371;49.042;8.002;2023-05-07T00:04:26;99708.88;;;14.59;90.85
20424;BME280;10371;49.042;8.002;2023-05-07T00:05:28;99714.13;;;14.59;90.87
20424;BME280;10371;49.042;8.002;2023-05-07T00:06:29;99719.38;;;14.59;91.04
20424;BME280;10371;49.042;8.002;2023-05-07T00:07:29;99712.31;;;14.59;91.05
20424;BME280;10371;49.042;8.002;2023-05-07T00:08:30;99719.22;;;14.60;91.08
20424;BME280;10371;49.042;8.002;2023-05-07T00:09:30;99725.13;;;14.62;91.18
20424;BME280;10371;49.042;8.002;2023-05-07T00:10:30;99715.19;;;14.66;91.29
20424;BME280;10371;49.042;8.002;2023-05-07T00:11:31;99716.69;;;14.68;91.23
20424;BME280;10371;49.042;8.002;2023-05-07T00:12:31;99718.16;;;14.71;91.20
20424;BME280;10371;49.042;8.002;2023-05-07T00:13:33;99716.94;;;14.65;90.80
20424;BME280;10371;49.042;8.002;2023-05-07T00:14:35;99719.38;;;14.59;90.98
20424;BME280;10371;49.042;8.002;2023-05-07T00:15:36;99720.66;;;14.55;91.31
20424;BME280;10371;49.042;8.002;2023-05-07T00:16:36;99719.00;;;14.53;91.40
20424;BME280;10371;49.042;8.002;2023-05-07T00:17:36;99721.63;;;14.53;91.62
20424;BME280;10371;49.042;8.002;2023-05-07T00:18:37;99715.84;;;14.50;91.69
20424;BME280;10371;49.042;8.002;2023-05-07T00:19:37;99717.63;;;14.49;91.87
20424;BME280;10371;49.042;8.002;2023-05-07T00:20:37;99722.19;;;14.47;91.89
20424;BME280;10371;49.042;8.002;2023-05-07T00:21:37;99722.44;;;14.54;91.46
20424;BME280;10371;49.042;8.002;2023-05-07T00:22:38;99712.94;;;14.53;91.49
20424;BME280;10371;49.042;8.002;2023-05-07T00:23:38;99716.38;;;14.53;91.46
20424;BME280;10371;49.042;8.002;2023-05-07T00:24:38;99716.06;;;14.57;91.27
20424;BME280;10371;49.042;8.002;2023-05-07T00:25:39;99715.25;;;14.56;91.17
20424;BME280;10371;49.042;8.002;2023-05-07T00:26:39;99711.94;;;14.54;91.13
20424;BME280;10371;49.042;8.002;2023-05-07T00:27:39;99710.69;;;14.58;91.07
20424;BME280;10371;49.042;8.002;2023-05-07T00:28:39;99707.91;;;14.60;90.82
20424;BME280;10371;49.042;8.002;2023-05-07T00:29:40;99711.38;;;14.60;90.89
20424;BME280;10371;49.042;8.002;2023-05-07T00:30:41;99708.06;;;14.58;90.91
20424;BME280;10371;49.042;8.002;2023-05-07T00:31:41;99703.13;;;14.55;91.06
20424;BME280;10371;49.042;8.002;2023-05-07T00:32:41;99706.28;;;14.59;90.94
20424;BME280;10371;49.042;8.002;2023-05-07T00:33:42;99701.19;;;14.57;90.88
20424;BME280;10371;49.042;8.002;2023-05-07T00:34:43;99696.41;;;14.52;90.98
20424;BME280;10371;49.042;8.002;2023-05-07T00:35:43;99700.13;;;14.50;91.40
20424;BME280;10371;49.042;8.002;2023-05-07T00:36:43;99702.06;;;14.48;91.49
20424;BME280;10371;49.042;8.002;2023-05-07T00:37:44;99702.59;;;14.51;91.51
20424;BME280;10371;49.042;8.002;2023-05-07T00:38:44;99703.13;;;14.55;91.20
20424;BME280;10371;49.042;8.002;2023-05-07T00:39:44;99702.31;;;14.55;91.08
20424;BME280;10371;49.042;8.002;2023-05-07T00:40:45;99704.09;;;14.54;90.98
20424;BME280;10371;49.042;8.002;2023-05-07T00:41:45;99703.28;;;14.53;91.19
20424;BME280;10371;49.042;8.002;2023-05-07T00:42:46;99705.09;;;14.53;91.21
20424;BME280;10371;49.042;8.002;2023-05-07T00:43:47;99701.75;;;14.51;91.42
20424;BME280;10371;49.042;8.002;2023-05-07T00:44:47;99698.78;;;14.46;91.77
20424;BME280;10371;49.042;8.002;2023-05-07T00:45:48;99706.91;;;14.43;92.03
20424;BME280;10371;49.042;8.002;2023-05-07T00:46:48;99701.03;;;14.41;92.29
20424;BME280;10371;49.042;8.002;2023-05-07T00:47:49;99702.84;;;14.40;92.52
20424;BME280;10371;49.042;8.002;2023-05-07T00:48:50;99700.34;;;14.39;92.50
20424;BME280;10371;49.042;8.002;2023-05-07T00:49:51;99704.47;;;14.41;92.52
20424;BME280;10371;49.042;8.002;2023-05-07T00:50:52;99702.66;;;14.42;92.46
20424;BME280;10371;49.042;8.002;2023-05-07T00:51:52;99701.84;;;14.41;92.45
20424;BME280;10371;49.042;8.002;2023-05-07T00:52:53;99707.78;;;14.43;92.27
20424;BME280;10371;49.042;8.002;2023-05-07T00:53:53;99713.66;;;14.45;92.13
20424;BME280;10371;49.042;8.002;2023-05-07T00:54:54;99708.41;;;14.45;92.06
20424;BME280;10371;49.042;8.002;2023-05-07T00:55:55;99715.47;;;14.45;92.09
20424;BME280;10371;49.042;8.002;2023-05-07T00:56:55;99716.44;;;14.44;92.18
20424;BME280;10371;49.042;8.002;2023-05-07T00:57:56;99713.81;;;14.44;92.27
20424;BME280;10371;49.042;8.002;2023-05-07T00:58:56;99718.38;;;14.42;92.52
20424;BME280;10371;49.042;8.002;2023-05-07T00:59:56;99720.88;;;14.43;92.51
20424;BME280;10371;49.042;8.002;2023-05-07T01:00:57;99714.78;;;14.43;92.49
20424;BME280;10371;49.042;8.002;2023-05-07T01:01:58;99707.09;;;14.41;92.51
20424;BME280;10371;49.042;8.002;2023-05-07T01:02:58;99710.84;;;14.39;92.58
20424;BME280;10371;49.042;8.002;2023-05-07T01:03:59;99702.97;;;14.39;92.75
20424;BME280;10371;49.042;8.002;2023-05-07T01:05:00;99708.22;;;14.39;92.80
20424;BME280;10371;49.042;8.002;2023-05-07T01:06:01;99712.63;;;14.38;93.07
20424;BME280;10371;49.042;8.002;2023-05-07T01:07:03;99706.72;;;14.36;92.91
20424;BME280;10371;49.042;8.002;2023-05-07T01:08:04;99707.69;;;14.35;93.25
20424;BME280;10371;49.042;8.002;2023-05-07T01:09:05;99703.41;;;14.34;93.18
20424;BME280;10371;49.042;8.002;2023-05-07T01:10:06;99705.22;;;14.34;93.19
20424;BME280;10371;49.042;8.002;2023-05-07T01:11:07;99703.13;;;14.37;93.43
20424;BME280;10371;49.042;8.002;2023-05-07T01:12:08;99709.72;;;14.41;93.16
20424;BME280;10371;49.042;8.002;2023-05-07T01:13:12;99710.97;;;14.37;93.22
20424;BME280;10371;49.042;8.002;2023-05-07T01:14:14;99700.66;;;14.36;93.26
20424;BME280;10371;49.042;8.002;2023-05-07T01:15:14;99708.16;;;14.30;93.55
20424;BME280;10371;49.042;8.002;2023-05-07T01:16:15;99699.78;;;14.27;93.81
20424;BME280;10371;49.042;8.002;2023-05-07T01:17:17;99695.97;;;14.21;93.94
20424;BME280;10371;49.042;8.002;2023-05-07T01:18:17;99706.44;;;14.21;94.18
20424;BME280;10371;49.042;8.002;2023-05-07T01:19:19;99704.13;;;14.18;94.33
20424;BME280;10371;49.042;8.002;2023-05-07T01:20:19;99701.81;;;14.15;94.46
20424;BME280;10371;49.042;8.002;2023-05-07T01:21:26;99698.19;;;14.16;94.47
20424;BME280;10371;49.042;8.002;2023-05-07T01:22:36;99699.19;;;14.15;94.65
20424;BME280;10371;49.042;8.002;2023-05-07T01:23:38;99700.81;;;14.16;94.74
20424;BME280;10371;49.042;8.002;2023-05-07T01:24:38;99701.13;;;14.13;95.00
20424;BME280;10371;49.042;8.002;2023-05-07T01:25:38;99692.44;;;14.13;94.75
20424;BME280;10371;49.042;8.002;2023-05-07T01:26:41;99706.19;;;14.15;95.10
20424;BME280;10371;49.042;8.002;2023-05-07T01:27:41;99699.84;;;14.17;95.19
20424;BME280;10371;49.042;8.002;2023-05-07T01:28:46;99700.81;;;14.16;95.11
20424;BME280;10371;49.042;8.002;2023-05-07T01:29:46;99698.34;;;14.15;95.08
20424;BME280;10371;49.042;8.002;2023-05-07T01:30:54;99696.41;;;14.17;95.15
20424;BME280;10371;49.042;8.002;2023-05-07T01:32:00;99697.69;;;14.13;95.09
20424;BME280;10371;49.042;8.002;2023-05-07T01:33:04;99699.63;;;14.11;95.28
20424;BME280;10371;49.042;8.002;2023-05-07T01:34:08;99695.00;;;14.04;95.47
20424;BME280;10371;49.042;8.002;2023-05-07T01:35:11;99694.16;;;14.04;95.72
20424;BME280;10371;49.042;8.002;2023-05-07T01:36:12;99697.06;;;14.01;95.91
20424;BME280;10371;49.042;8.002;2023-05-07T01:37:14;99704.41;;;13.97;96.07
20424;BME280;10371;49.042;8.002;2023-05-07T01:38:15;99699.75;;;13.91;96.39
20424;BME280;10371;49.042;8.002;2023-05-07T01:39:15;99697.28;;;13.90;96.47
20424;BME280;10371;49.042;8.002;2023-05-07T01:40:16;99691.41;;;13.88;96.72
20424;BME280;10371;49.042;8.002;2023-05-07T01:41:17;99688.63;;;13.89;96.94
20424;BME280;10371;49.042;8.002;2023-05-07T01:42:17;99687.13;;;13.86;97.07
20424;BME280;10371;49.042;8.002;2023-05-07T01:43:17;99688.09;;;13.85;97.23
20424;BME280;10371;49.042;8.002;2023-05-07T01:44:19;99687.56;;;13.82;97.13
20424;BME280;10371;49.042;8.002;2023-05-07T01:45:19;99682.47;;;13.80;97.37
20424;BME280;10371;49.042;8.002;2023-05-07T01:46:20;99689.34;;;13.81;97.47
20424;BME280;10371;49.042;8.002;2023-05-07T01:47:21;99689.91;;;13.85;97.49
20424;BME280;10371;49.042;8.002;2023-05-07T01:48:22;99689.34;;;13.81;97.47
20424;BME280;10371;49.042;8.002;2023-05-07T01:49:24;99698.47;;;13.77;97.46
20424;BME280;10371;49.042;8.002;2023-05-07T01:50:25;99695.16;;;13.75;97.76
20424;BME280;10371;49.042;8.002;2023-05-07T01:51:25;99699.59;;;13.75;97.93
20424;BME280;10371;49.042;8.002;2023-05-07T01:52:27;99699.88;;;13.72;98.19
20424;BME280;10371;49.042;8.002;2023-05-07T01:53:28;99703.75;;;13.68;98.09
20424;BME280;10371;49.042;8.002;2023-05-07T01:54:28;99693.06;;;13.61;98.37
20424;BME280;10371;49.042;8.002;2023-05-07T01:55:29;99700.47;;;13.66;98.68
20424;BME280;10371;49.042;8.002;2023-05-07T01:56:29;99703.91;;;13.66;98.70
20424;BME280;10371;49.042;8.002;2023-05-07T01:57:30;99692.06;;;13.62;98.63
20424;BME280;10371;49.042;8.002;2023-05-07T01:58:30;99693.75;;;13.63;98.64
20424;BME280;10371;49.042;8.002;2023-05-07T01:59:31;99697.41;;;13.70;98.56
20424;BME280;10371;49.042;8.002;2023-05-07T02:00:31;99695.47;;;13.72;98.22
20424;BME280;10371;49.042;8.002;2023-05-07T02:01:32;99692.34;;;13.69;98.07
20424;BME280;10371;49.042;8.002;2023-05-07T02:02:32;99700.00;;;13.70;98.06
20424;BME280;10371;49.042;8.002;2023-05-07T02:03:32;99694.94;;;13.69;97.93
20424;BME280;10371;49.042;8.002;2023-05-07T02:04:32;99693.16;;;13.69;98.02
20424;BME280;10371;49.042;8.002;2023-05-07T02:05:33;99690.53;;;13.69;97.89
20424;BME280;10371;49.042;8.002;2023-05-07T02:06:33;99697.09;;;13.73;97.83
20424;BME280;10371;49.042;8.002;2023-05-07T02:07:33;99686.81;;;13.72;98.04
20424;BME280;10371;49.042;8.002;2023-05-07T02:08:34;99694.94;;;13.69;97.64
20424;BME280;10371;49.042;8.002;2023-05-07T02:09:34;99696.75;;;13.68;97.97
20424;BME280;10371;49.042;8.002;2023-05-07T02:10:34;99698.50;;;13.68;98.26
20424;BME280;10371;49.042;8.002;2023-05-07T02:11:36;99700.31;;;13.67;98.13
20424;BME280;10371;49.042;8.002;2023-05-07T02:12:36;99697.41;;;13.70;98.23
20424;BME280;10371;49.042;8.002;2023-05-07T02:13:36;99695.25;;;13.66;98.19
20424;BME280;10371;49.042;8.002;2023-05-07T02:14:36;99716.69;;;13.69;98.14
20424;BME280;10371;49.042;8.002;2023-05-07T02:15:37;99701.00;;;13.69;98.39
20424;BME280;10371;49.042;8.002;2023-05-07T02:16:37;99707.88;;;13.70;98.37
20424;BME280;10371;49.042;8.002;2023-05-07T02:18:04;99713.41;;;13.67;98.36
20424;BME280;10371;49.042;8.002;2023-05-07T02:19:06;99695.09;;;13.67;98.32
20424;BME280;10371;49.042;8.002;2023-05-07T02:20:06;99698.00;;;13.64;98.42
20424;BME280;10371;49.042;8.002;2023-05-07T02:21:13;99700.47;;;13.66;98.54
20424;BME280;10371;49.042;8.002;2023-05-07T02:22:13;99700.88;;;13.71;98.53
20424;BME280;10371;49.042;8.002;2023-05-07T02:23:13;99702.50;;;13.72;98.28
20424;BME280;10371;49.042;8.002;2023-05-07T02:24:14;99701.59;;;13.63;98.41
20424;BME280;10371;49.042;8.002;2023-05-07T02:25:14;99704.78;;;13.57;98.66
20424;BME280;10371;49.042;8.002;2023-05-07T02:26:14;99703.59;;;13.51;98.98
20424;BME280;10371;49.042;8.002;2023-05-07T02:27:14;99707.97;;;13.51;99.39
20424;BME280;10371;49.042;8.002;2023-05-07T02:28:15;99709.78;;;13.50;99.51
20424;BME280;10371;49.042;8.002;2023-05-07T02:29:15;99705.50;;;13.49;99.62
20424;BME280;10371;49.042;8.002;2023-05-07T02:30:15;99711.56;;;13.50;99.89
20424;BME280;10371;49.042;8.002;2023-05-07T02:31:16;99708.94;;;13.50;99.80
20424;BME280;10371;49.042;8.002;2023-05-07T02:32:16;99710.59;;;13.51;99.85
20424;BME280;10371;49.042;8.002;2023-05-07T02:33:16;99710.44;;;13.52;99.98
20424;BME280;10371;49.042;8.002;2023-05-07T02:34:17;99709.63;;;13.52;99.98
20424;BME280;10371;49.042;8.002;2023-05-07T02:35:17;99707.69;;;13.54;99.92
20424;BME280;10371;49.042;8.002;2023-05-07T02:36:17;99705.75;;;13.56;99.70
20424;BME280;10371;49.042;8.002;2023-05-07T02:37:18;99703.00;;;13.57;99.46
20424;BME280;10371;49.042;8.002;2023-05-07T02:38:18;99705.06;;;13.54;99.42
20424;BME280;10371;49.042;8.002;2023-05-07T02:39:18;99694.25;;;13.49;99.51
20424;BME280;10371;49.042;8.002;2023-05-07T02:40:19;99696.97;;;13.47;99.65
20424;BME280;10371;49.042;8.002;2023-05-07T02:41:19;99696.69;;;13.50;99.48
20424;BME280;10371;49.042;8.002;2023-05-07T02:42:20;99689.66;;;13.51;99.46
20424;BME280;10371;49.042;8.002;2023-05-07T02:43:20;99691.47;;;13.50;99.70
20424;BME280;10371;49.042;8.002;2023-05-07T02:44:20;99694.06;;;13.50;99.42
20424;BME280;10371;49.042;8.002;2023-05-07T02:45:20;99691.31;;;13.52;99.29
20424;BME280;10371;49.042;8.002;2023-05-07T02:46:21;99687.34;;;13.48;99.36
20424;BME280;10371;49.042;8.002;2023-05-07T02:47:21;99689.00;;;13.49;99.43
20424;BME280;10371;49.042;8.002;2023-05-07T02:48:22;99699.19;;;13.52;99.25
20424;BME280;10371;49.042;8.002;2023-05-07T02:49:22;99690.78;;;13.48;99.41
20424;BME280;10371;49.042;8.002;2023-05-07T02:50:23;99696.56;;;13.52;99.23
20424;BME280;10371;49.042;8.002;2023-05-07T02:51:23;99699.19;;;13.52;99.06
20424;BME280;10371;49.042;8.002;2023-05-07T02:52:24;99694.47;;;13.55;98.97
20424;BME280;10371;49.042;8.002;2023-05-07T02:53:25;99696.94;;;13.57;98.97
20424;BME280;10371;49.042;8.002;2023-05-07T02:54:29;99697.47;;;13.60;98.69
20424;BME280;10371;49.042;8.002;2023-05-07T02:55:30;99693.47;;;13.56;98.45
20424;BME280;10371;49.042;8.002;2023-05-07T02:56:30;99693.66;;;13.55;98.35
20424;BME280;10371;49.042;8.002;2023-05-07T02:57:30;99693.66;;;13.55;98.65
20424;BME280;10371;49.042;8.002;2023-05-07T02:58:30;99686.91;;;13.52;98.81
20424;BME280;10371;49.042;8.002;2023-05-07T02:59:31;99693.66;;;13.55;98.56
20424;BME280;10371;49.042;8.002;2023-05-07T03:00:31;99687.59;;;13.54;98.10
20424;BME280;10371;49.042;8.002;2023-05-07T03:01:31;99688.56;;;13.53;98.54
20424;BME280;10371;49.042;8.002;2023-05-07T03:02:31;99677.44;;;13.51;98.46
20424;BME280;10371;49.042;8.002;2023-05-07T03:03:32;99687.59;;;13.54;98.63
20424;BME280;10371;49.042;8.002;2023-05-07T03:04:32;99679.75;;;13.54;98.52
20424;BME280;10371;49.042;8.002;2023-05-07T03:05:32;99690.06;;;13.56;98.17
20424;BME280;10371;49.042;8.002;2023-05-07T03:06:33;99680.56;;;13.55;98.43
20424;BME280;10371;49.042;8.002;2023-05-07T03:07:34;99689.25;;;13.55;98.38
20424;BME280;10371;49.042;8.002;2023-05-07T03:08:35;99687.59;;;13.54;98.25
20424;BME280;10371;49.042;8.002;2023-05-07T03:09:36;99686.75;;;13.54;98.24
20424;BME280;10371;49.042;8.002;2023-05-07T03:10:37;99680.06;;;13.51;98.30
20424;BME280;10371;49.042;8.002;2023-05-07T03:11:37;99678.78;;;13.55;98.10
20424;BME280;10371;49.042;8.002;2023-05-07T03:12:37;99672.56;;;13.56;97.85
20424;BME280;10371;49.042;8.002;2023-05-07T03:13:37;99680.97;;;13.60;97.63
20424;BME280;10371;49.042;8.002;2023-05-07T03:14:38;99673.78;;;13.62;97.62
20424;BME280;10371;49.042;8.002;2023-05-07T03:15:38;99684.91;;;13.64;97.21
20424;BME280;10371;49.042;8.002;2023-05-07T03:16:39;99677.88;;;13.64;97.24
20424;BME280;10371;49.042;8.002;2023-05-07T03:17:39;99680.66;;;13.63;97.06
20424;BME280;10371;49.042;8.002;2023-05-07T03:18:40;99674.03;;;13.69;96.61
20424;BME280;10371;49.042;8.002;2023-05-07T03:19:40;99680.19;;;13.68;96.53
20424;BME280;10371;49.042;8.002;2023-05-07T03:20:40;99675.44;;;13.63;96.81
20424;BME280;10371;49.042;8.002;2023-05-07T03:21:41;99675.13;;;13.66;96.87
20424;BME280;10371;49.042;8.002;2023-05-07T03:22:41;99677.38;;;13.61;96.84
20424;BME280;10371;49.042;8.002;2023-05-07T03:23:41;99674.34;;;13.56;97.19
20424;BME280;10371;49.042;8.002;2023-05-07T03:24:42;99677.78;;;13.56;97.34
20424;BME280;10371;49.042;8.002;2023-05-07T03:25:42;99674.66;;;13.53;97.46
20424;BME280;10371;49.042;8.002;2023-05-07T03:26:42;99686.50;;;13.57;97.36
20424;BME280;10371;49.042;8.002;2023-05-07T03:27:42;99681.38;;;13.55;97.15
20424;BME280;10371;49.042;8.002;2023-05-07T03:28:43;99686.31;;;13.58;97.27
20424;BME280;10371;49.042;8.002;2023-05-07T03:29:43;99690.06;;;13.56;97.35
20424;BME280;10371;49.042;8.002;2023-05-07T03:30:43;99683.47;;;13.52;97.52
20424;BME280;10371;49.042;8.002;2023-05-07T03:31:44;99685.94;;;13.53;97.67
20424;BME280;10371;49.042;8.002;2023-05-07T03:32:45;99674.66;;;13.53;97.77
20424;BME280;10371;49.042;8.002;2023-05-07T03:33:56;99669.31;;;13.45;97.81
20424;BME280;10371;49.042;8.002;2023-05-07T03:34:56;99687.22;;;13.49;97.94
20424;BME280;10371;49.042;8.002;2023-05-07T03:35:56;99688.16;;;13.48;98.11
20424;BME280;10371;49.042;8.002;2023-05-07T03:36:57;99678.91;;;13.54;97.79
20424;BME280;10371;49.042;8.002;2023-05-07T03:37:57;99675.34;;;13.55;97.59
20424;BME280;10371;49.042;8.002;2023-05-07T03:38:57;99676.03;;;13.57;97.27
20424;BME280;10371;49.042;8.002;2023-05-07T03:39:57;99678.78;;;13.55;97.11
20424;BME280;10371;49.042;8.002;2023-05-07T03:40:58;99676.97;;;13.56;97.28
20424;BME280;10371;49.042;8.002;2023-05-07T03:41:58;99678.78;;;13.55;97.30
20424;BME280;10371;49.042;8.002;2023-05-07T03:42:59;99675.19;;;13.56;97.41
20424;BME280;10371;49.042;8.002;2023-05-07T03:44:00;99682.88;;;13.58;97.31
20424;BME280;10371;49.042;8.002;2023-05-07T03:45:00;99678.63;;;13.57;97.44
20424;BME280;10371;49.042;8.002;2023-05-07T03:46:00;99679.28;;;13.59;97.30
20424;BME280;10371;49.042;8.002;2023-05-07T03:47:01;99671.44;;;13.59;97.42
20424;BME280;10371;49.042;8.002;2023-05-07T03:48:01;99669.50;;;13.61;97.10
20424;BME280;10371;49.042;8.002;2023-05-07T03:49:01;99677.66;;;13.58;97.28
20424;BME280;10371;49.042;8.002;2023-05-07T03:50:01;99678.25;;;13.52;97.51
20424;BME280;10371;49.042;8.002;2023-05-07T03:51:02;99673.59;;;13.46;97.75
20424;BME280;10371;49.042;8.002;2023-05-07T03:52:02;99687.50;;;13.46;98.12
20424;BME280;10371;49.042;8.002;2023-05-07T03:53:02;99678.97;;;13.44;98.40
20424;BME280;10371;49.042;8.002;2023-05-07T03:54:03;99681.47;;;13.46;98.62
20424;BME280;10371;49.042;8.002;2023-05-07T03:55:03;99685.31;;;13.41;98.67
20424;BME280;10371;49.042;8.002;2023-05-07T03:56:04;99683.69;;;13.40;98.84
20424;BME280;10371;49.042;8.002;2023-05-07T03:57:04;99691.38;;;13.42;98.74
20424;BME280;10371;49.042;8.002;2023-05-07T03:58:04;99696.06;;;13.38;99.12
20424;BME280;10371;49.042;8.002;2023-05-07T03:59:04;99698.69;;;13.38;99.12
20424;BME280;10371;49.042;8.002;2023-05-07T04:00:05;99690.97;;;13.37;99.13
20424;BME280;10371;49.042;8.002;2023-05-07T04:01:06;99700.78;;;13.35;99.33
20424;BME280;10371;49.042;8.002;2023-05-07T04:02:07;99693.59;;;13.37;99.20
20424;BME280;10371;49.042;8.002;2023-05-07T04:03:08;99698.00;;;13.36;99.36
20424;BME280;10371;49.042;8.002;2023-05-07T04:04:08;99692.75;;;13.36;99.25
20424;BME280;10371;49.042;8.002;2023-05-07T04:05:08;99696.50;;;13.34;99.14
20424;BME280;10371;49.042;8.002;2023-05-07T04:06:09;99694.69;;;13.34;99.19
20424;BME280;10371;49.042;8.002;2023-05-07T04:07:10;99693.75;;;13.35;99.23
20424;BME280;10371;49.042;8.002;2023-05-07T04:08:10;99696.50;;;13.34;99.29
20424;BME280;10371;49.042;8.002;2023-05-07T04:09:11;99698.00;;;13.36;99.44
20424;BME280;10371;49.042;8.002;2023-05-07T04:10:11;99699.66;;;13.37;99.54
20424;BME280;10371;49.042;8.002;2023-05-07T04:11:13;99706.13;;;13.33;99.43
20424;BME280;10371;49.042;8.002;2023-05-07T04:12:14;99703.22;;;13.36;99.67
20424;BME280;10371;49.042;8.002;2023-05-07T04:13:14;99706.13;;;13.33;99.53
20424;BME280;10371;49.042;8.002;2023-05-07T04:14:15;99702.53;;;13.34;99.53
20424;BME280;10371;49.042;8.002;2023-05-07T04:15:15;99703.38;;;13.35;99.50
20424;BME280;10371;49.042;8.002;2023-05-07T04:16:16;99706.81;;;13.35;99.64
20424;BME280;10371;49.042;8.002;2023-05-07T04:17:16;99704.59;;;13.40;99.62
20424;BME280;10371;49.042;8.002;2023-05-07T04:18:16;99709.66;;;13.42;99.35
20424;BME280;10371;49.042;8.002;2023-05-07T04:19:16;99707.06;;;13.42;99.29
20424;BME280;10371;49.042;8.002;2023-05-07T04:20:17;99707.88;;;13.43;99.32
20424;BME280;10371;49.042;8.002;2023-05-07T04:21:19;99705.53;;;13.39;99.42
20424;BME280;10371;49.042;8.002;2023-05-07T04:22:19;99705.25;;;13.43;99.60
20424;BME280;10371;49.042;8.002;2023-05-07T04:23:20;99698.56;;;13.40;99.68
20424;BME280;10371;49.042;8.002;2023-05-07T04:24:20;99702.28;;;13.37;99.97
20424;BME280;10371;49.042;8.002;2023-05-07T04:25:20;99701.97;;;13.40;100.00
20424;BME280;10371;49.042;8.002;2023-05-07T04:26:21;99696.06;;;13.38;100.00
20424;BME280;10371;49.042;8.002;2023-05-07T04:27:21;99702.28;;;13.37;100.00
20424;BME280;10371;49.042;8.002;2023-05-07T04:28:21;99700.59;;;13.36;100.00
20424;BME280;10371;49.042;8.002;2023-05-07T04:29:22;99697.88;;;13.38;100.00
20424;BME280;10371;49.042;8.002;2023-05-07T04:30:22;99703.38;;;13.35;100.00
20424;BME280;10371;49.042;8.002;2023-05-07T04:31:22;99712.56;;;13.39;100.00
20424;BME280;10371;49.042;8.002;2023-05-07T04:32:23;99700.31;;;13.39;100.00
20424;BME280;10371;49.042;8.002;2023-05-07T04:33:25;99719.19;;;13.43;100.00
20424;BME280;10371;49.042;8.002;2023-05-07T04:34:25;99705.41;;;13.41;100.00
20424;BME280;10371;49.042;8.002;2023-05-07T04:35:25;99698.78;;;13.47;100.00
20424;BME280;10371;49.042;8.002;2023-05-07T04:36:25;99703.84;;;13.48;99.90
20424;BME280;10371;49.042;8.002;2023-05-07T04:37:31;99704.94;;;13.55;99.54
20424;BME280;10371;49.042;8.002;2023-05-07T04:38:32;99700.59;;;13.64;99.36
20424;BME280;10371;49.042;8.002;2023-05-07T04:39:32;99694.94;;;13.69;99.19
20424;BME280;10371;49.042;8.002;2023-05-07T04:40:36;99704.53;;;13.78;98.77
20424;BME280;10371;49.042;8.002;2023-05-07T04:41:36;99703.72;;;13.77;98.32
20424;BME280;10371;49.042;8.002;2023-05-07T04:42:36;99700.66;;;13.82;98.07
20424;BME280;10371;49.042;8.002;2023-05-07T04:43:37;99697.34;;;13.80;97.77
20424;BME280;10371;49.042;8.002;2023-05-07T04:44:37;99698.84;;;13.82;97.47
20424;BME280;10371;49.042;8.002;2023-05-07T04:45:37;99697.44;;;13.88;97.45
20424;BME280;10371;49.042;8.002;2023-05-07T04:46:40;99705.28;;;13.88;97.26
20424;BME280;10371;49.042;8.002;2023-05-07T04:47:40;99700.88;;;13.89;97.16
20424;BME280;10371;49.042;8.002;2023-05-07T04:48:41;99712.25;;;13.97;97.10
20424;BME280;10371;49.042;8.002;2023-05-07T04:49:41;99714.56;;;14.00;96.92
20424;BME280;10371;49.042;8.002;2023-05-07T04:50:41;99710.00;;;14.02;96.62
20424;BME280;10371;49.042;8.002;2023-05-07T04:51:41;99706.50;;;14.12;96.49
20424;BME280;10371;49.042;8.002;2023-05-07T04:52:42;99710.09;;;14.11;96.23
20424;BME280;10371;49.042;8.002;2023-05-07T04:53:43;99713.91;;;14.16;96.12
20424;BME280;10371;49.042;8.002;2023-05-07T04:54:43;99714.72;;;14.17;95.79
20424;BME280;10371;49.042;8.002;2023-05-07T04:55:44;99718.84;;;14.19;95.74
20424;BME280;10371;49.042;8.002;2023-05-07T04:56:45;99722.16;;;14.21;95.68
20424;BME280;10371;49.042;8.002;2023-05-07T04:57:45;99721.75;;;14.16;95.32
20424;BME280;10371;49.042;8.002;2023-05-07T04:58:46;99719.97;;;14.17;95.64
20424;BME280;10371;49.042;8.002;2023-05-07T04:59:46;99715.03;;;14.14;95.56
20424;BME280;10371;49.042;8.002;2023-05-07T05:00:46;99719.44;;;14.13;95.79
20424;BME280;10371;49.042;8.002;2023-05-07T05:01:47;99725.41;;;14.23;95.69
20424;BME280;10371;49.042;8.002;2023-05-07T05:02:47;99716.75;;;14.23;95.57
20424;BME280;10371;49.042;8.002;2023-05-07T05:03:47;99713.81;;;14.26;95.11
20424;BME280;10371;49.042;8.002;2023-05-07T05:04:47;99727.59;;;14.28;94.95
20424;BME280;10371;49.042;8.002;2023-05-07T05:05:52;99721.69;;;14.26;94.98
20424;BME280;10371;49.042;8.002;2023-05-07T05:06:52;99726.16;;;14.34;94.87
20424;BME280;10371;49.042;8.002;2023-05-07T05:07:53;99724.59;;;14.41;94.61
20424;BME280;10371;49.042;8.002;2023-05-07T05:08:53;99726.63;;;14.47;94.35
20424;BME280;10371;49.042;8.002;2023-05-07T05:09:54;99727.66;;;14.54;94.04
20424;BME280;10371;49.042;8.002;2023-05-07T05:10:55;99727.53;;;14.56;93.76
20424;BME280;10371;49.042;8.002;2023-05-07T05:11:55;99729.72;;;14.60;93.48
20424;BME280;10371;49.042;8.002;2023-05-07T05:12:56;99735.53;;;14.72;93.57
20424;BME280;10371;49.042;8.002;2023-05-07T05:13:56;99736.34;;;14.72;93.16
20424;BME280;10371;49.042;8.002;2023-05-07T05:14:56;99734.91;;;14.78;92.96
20424;BME280;10371;49.042;8.002;2023-05-07T05:15:57;99730.72;;;14.85;92.62
20424;BME280;10371;49.042;8.002;2023-05-07T05:16:57;99738.41;;;14.87;92.29
20424;BME280;10371;49.042;8.002;2023-05-07T05:17:57;99730.16;;;14.82;91.97
20424;BME280;10371;49.042;8.002;2023-05-07T05:18:57;99738.72;;;14.84;92.20
20424;BME280;10371;49.042;8.002;2023-05-07T05:19:58;99743.13;;;14.83;92.41
20424;BME280;10371;49.042;8.002;2023-05-07T05:20:58;99738.25;;;14.88;92.42
20424;BME280;10371;49.042;8.002;2023-05-07T05:21:58;99745.66;;;14.93;92.14